createdAt,value
2022-10-15T00:01:52.113Z,3.55
2022-10-15T00:04:20.905Z,3.55
2022-10-15T00:06:49.255Z,2.90
2022-10-15T00:09:18.259Z,3.25
2022-10-15T00:11:46.876Z,3.20
2022-10-15T00:14:16.122Z,3.00
2022-10-15T00:16:46.183Z,2.55
2022-10-15T00:19:14.642Z,3.17
2022-10-15T00:21:43.794Z,3.13
2022-10-15T00:24:12.124Z,2.53
2022-10-15T00:26:41.291Z,2.83
2022-10-15T00:29:09.783Z,2.78
2022-10-15T00:31:38.980Z,2.90
2022-10-15T00:34:09.651Z,2.78
2022-10-15T00:36:38.482Z,2.58
2022-10-15T00:39:08.256Z,2.38
2022-10-15T00:41:39.134Z,2.10
2022-10-15T00:44:41.164Z,1.92
2022-10-15T00:47:18.177Z,2.47
2022-10-15T00:49:52.671Z,2.33
2022-10-15T00:52:26.601Z,2.47
2022-10-15T00:55:01.262Z,2.50
2022-10-15T00:57:32.076Z,1.65
2022-10-15T01:00:08.154Z,1.95
2022-10-15T01:02:36.747Z,1.90
2022-10-15T01:05:08.525Z,1.85
2022-10-15T01:07:36.868Z,1.48
2022-10-15T01:10:07.203Z,1.65
2022-10-15T01:12:50.427Z,1.70
2022-10-15T01:15:24.086Z,1.80
2022-10-15T01:17:58.084Z,1.50
2022-10-15T01:20:52.633Z,1.60
2022-10-15T01:23:36.771Z,1.15
2022-10-15T01:26:36.529Z,1.42
2022-10-15T01:29:21.614Z,1.77
2022-10-15T01:31:59.909Z,1.40
2022-10-15T01:34:38.556Z,1.50
2022-10-15T01:37:12.704Z,1.50
2022-10-15T01:39:46.540Z,1.50
2022-10-15T01:42:20.112Z,1.60
2022-10-15T01:44:54.837Z,1.50
2022-10-15T01:47:45.112Z,1.88
2022-10-15T01:50:17.357Z,1.90
2022-10-15T01:52:46.644Z,2.10
2022-10-15T01:55:17.771Z,2.10
2022-10-15T01:57:47.315Z,2.10
2022-10-15T02:00:17.537Z,1.90
2022-10-15T02:02:47.850Z,2.33
2022-10-15T02:05:23.120Z,2.00
2022-10-15T02:08:01.794Z,2.35
2022-10-15T02:10:43.252Z,2.00
2022-10-15T02:13:20.157Z,1.83
2022-10-15T02:15:58.915Z,2.35
2022-10-15T02:18:37.136Z,2.08
2022-10-15T02:21:11.658Z,2.10
2022-10-15T02:23:46.328Z,2.42
2022-10-15T02:26:16.953Z,1.90
2022-10-15T02:28:53.928Z,1.88
2022-10-15T02:31:24.265Z,2.20
2022-10-15T02:33:59.598Z,2.15
2022-10-15T02:36:28.611Z,1.58
2022-10-15T02:38:59.307Z,2.10
2022-10-15T02:41:29.862Z,2.10
2022-10-15T02:43:58.415Z,2.30
2022-10-15T02:46:27.958Z,2.03
2022-10-15T02:48:58.070Z,1.73
2022-10-15T02:51:27.608Z,1.65
2022-10-15T02:53:56.126Z,1.67
2022-10-15T02:56:26.642Z,1.90
2022-10-15T02:58:55.559Z,2.40
2022-10-15T03:01:24.739Z,1.90
2022-10-15T03:03:53.296Z,1.80
2022-10-15T03:06:24.086Z,2.15
2022-10-15T03:08:53.022Z,2.22
2022-10-15T03:11:24.670Z,2.30
2022-10-15T03:13:53.702Z,2.33
2022-10-15T03:16:22.854Z,2.13
2022-10-15T03:18:52.127Z,2.00
2022-10-15T03:21:21.293Z,1.60
2022-10-15T03:23:51.079Z,1.65
2022-10-15T03:26:24.017Z,1.30
2022-10-15T03:28:52.805Z,1.58
2022-10-15T03:31:34.186Z,1.42
2022-10-15T03:34:05.478Z,1.30
2022-10-15T03:36:34.056Z,1.20
2022-10-15T03:39:06.281Z,1.23
2022-10-15T03:41:34.776Z,0.85
2022-10-15T03:44:05.021Z,1.48
2022-10-15T03:46:33.970Z,1.30
2022-10-15T03:49:03.348Z,1.23
2022-10-15T03:51:31.929Z,1.20
2022-10-15T03:54:08.896Z,1.10
2022-10-15T03:56:44.610Z,1.25
2022-10-15T03:59:31.160Z,1.08
2022-10-15T04:02:02.706Z,0.88
2022-10-15T04:04:33.068Z,0.90
2022-10-15T04:07:01.900Z,1.08
2022-10-15T04:09:33.804Z,1.20
2022-10-15T04:12:22.884Z,1.10
2022-10-15T04:14:51.538Z,1.13
2022-10-15T04:17:19.951Z,0.95
2022-10-15T04:19:50.343Z,0.93
2022-10-15T04:22:19.904Z,0.90
2022-10-15T04:24:54.574Z,0.80
2022-10-15T04:27:30.068Z,0.90
2022-10-15T04:30:11.295Z,0.88
2022-10-15T04:32:44.006Z,1.00
2022-10-15T04:35:13.116Z,0.95
2022-10-15T04:37:53.522Z,0.80
2022-10-15T04:40:23.606Z,0.73
2022-10-15T04:42:52.808Z,1.10
2022-10-15T04:45:21.743Z,0.60
2022-10-15T04:47:50.362Z,0.57
2022-10-15T04:50:20.192Z,0.70
2022-10-15T04:53:06.917Z,0.60
2022-10-15T04:55:40.502Z,0.95
2022-10-15T04:58:09.331Z,0.73
2022-10-15T05:00:39.324Z,0.73
2022-10-15T05:06:08.974Z,0.90
2022-10-15T05:08:42.352Z,0.80
2022-10-15T05:11:21.901Z,0.52
2022-10-15T05:13:51.468Z,0.70
2022-10-15T05:16:21.749Z,0.60
2022-10-15T05:18:51.666Z,0.60
2022-10-15T05:21:21.178Z,0.60
2022-10-15T05:23:53.210Z,0.80
2022-10-15T05:26:42.798Z,0.90
2022-10-15T05:29:11.511Z,1.10
2022-10-15T05:31:40.306Z,0.80
2022-10-15T05:34:15.928Z,0.80
2022-10-15T05:36:51.897Z,0.65
2022-10-15T05:39:20.387Z,0.60
2022-10-15T05:41:50.414Z,0.70
2022-10-15T05:44:21.919Z,0.75
2022-10-15T05:46:51.875Z,1.25
2022-10-15T05:49:24.752Z,1.27
2022-10-15T05:52:03.190Z,0.70
2022-10-15T05:54:55.486Z,0.70
2022-10-15T05:57:25.241Z,0.55
2022-10-15T05:59:54.218Z,0.50
2022-10-15T06:02:23.069Z,0.75
2022-10-15T06:04:53.394Z,0.60
2022-10-15T06:07:22.836Z,0.57
2022-10-15T06:09:51.737Z,0.50
2022-10-15T06:12:20.981Z,0.40
2022-10-15T06:14:50.748Z,0.50
2022-10-15T06:17:20.070Z,0.50
2022-10-15T06:19:53.119Z,0.82
2022-10-15T06:22:21.490Z,0.70
2022-10-15T06:24:50.612Z,0.70
2022-10-15T06:27:19.015Z,0.40
2022-10-15T06:29:47.997Z,0.50
2022-10-15T06:32:18.379Z,0.60
2022-10-15T06:34:46.721Z,0.70
2022-10-15T06:37:15.670Z,0.70
2022-10-15T06:39:44.011Z,0.50
2022-10-15T06:42:12.763Z,0.55
2022-10-15T06:44:42.390Z,0.50
2022-10-15T06:47:11.728Z,0.60
2022-10-15T06:49:41.508Z,0.43
2022-10-15T06:52:10.215Z,0.45
2022-10-15T06:54:38.922Z,0.73
2022-10-15T06:57:09.705Z,0.50
2022-10-15T06:59:41.191Z,0.50
2022-10-15T07:02:10.643Z,0.45
2022-10-15T07:04:40.026Z,0.40
2022-10-15T07:07:09.819Z,0.60
2022-10-15T07:09:38.161Z,0.60
2022-10-15T07:12:07.522Z,0.57
2022-10-15T07:14:40.077Z,0.47
2022-10-15T07:17:10.717Z,0.50
2022-10-15T07:19:39.566Z,0.63
2022-10-15T07:22:09.567Z,0.35
2022-10-15T07:24:37.944Z,0.60
2022-10-15T07:27:08.289Z,0.40
2022-10-15T07:29:47.244Z,0.50
2022-10-15T07:32:15.802Z,0.60
2022-10-15T07:34:44.201Z,0.70
2022-10-15T07:37:14.676Z,1.88
2022-10-15T07:39:43.531Z,0.50
2022-10-15T07:44:41.559Z,0.50
2022-10-15T07:47:12.102Z,1.73
2022-10-15T07:49:40.940Z,0.75
2022-10-15T07:52:09.485Z,0.60
2022-10-15T07:54:39.223Z,0.70
2022-10-15T07:57:08.433Z,0.70
2022-10-15T07:59:36.964Z,0.50
2022-10-15T08:02:06.515Z,0.60
2022-10-15T08:04:35.528Z,0.80
2022-10-15T08:07:06.793Z,1.77
2022-10-15T08:09:39.273Z,2.97
2022-10-15T08:12:08.315Z,1.10
2022-10-15T08:14:39.087Z,0.60
2022-10-15T08:17:07.779Z,0.57
2022-10-15T08:19:36.374Z,0.68
2022-10-15T08:22:05.594Z,0.70
2022-10-15T08:24:34.364Z,0.50
2022-10-15T08:27:04.163Z,0.50
2022-10-15T08:29:33.153Z,0.50
2022-10-15T08:32:01.891Z,0.70
2022-10-15T08:34:32.195Z,0.60
2022-10-15T08:37:01.427Z,0.50
2022-10-15T08:39:29.879Z,0.50
2022-10-15T08:42:02.931Z,0.45
2022-10-15T08:44:42.621Z,0.40
2022-10-15T08:47:20.123Z,0.57
2022-10-15T08:49:51.805Z,0.40
2022-10-15T08:52:26.313Z,0.57
2022-10-15T08:54:57.141Z,0.60
2022-10-15T08:57:39.961Z,0.82
2022-10-15T09:00:17.058Z,0.60
2022-10-15T09:02:54.057Z,0.60
2022-10-15T09:05:35.435Z,0.40
2022-10-15T09:08:13.512Z,0.50
2022-10-15T09:10:47.995Z,0.35
2022-10-15T09:13:27.234Z,0.30
2022-10-15T09:16:01.489Z,0.30
2022-10-15T09:18:34.842Z,0.40
2022-10-15T09:21:05.464Z,0.65
2022-10-15T09:23:34.999Z,0.52
2022-10-15T09:26:08.751Z,0.55
2022-10-15T09:28:44.300Z,0.68
2022-10-15T09:31:17.733Z,0.50
2022-10-15T09:33:51.684Z,0.50
2022-10-15T09:36:38.307Z,0.50
2022-10-15T09:39:27.723Z,0.30
2022-10-15T09:42:10.170Z,0.77
2022-10-15T09:44:43.103Z,0.70
2022-10-15T09:47:25.089Z,0.60
2022-10-15T09:49:59.949Z,0.52
2022-10-15T09:52:44.985Z,0.50
2022-10-15T09:55:29.051Z,0.82
2022-10-15T09:58:00.239Z,0.30
2022-10-15T10:00:57.626Z,0.30
2022-10-15T10:03:28.202Z,0.43
2022-10-15T10:06:03.286Z,0.40
2022-10-15T10:08:41.398Z,0.30
2022-10-15T10:11:13.273Z,0.43
2022-10-15T10:13:46.092Z,0.60
2022-10-15T10:16:18.460Z,0.40
2022-10-15T10:19:03.801Z,0.50
2022-10-15T10:21:34.717Z,0.43
2022-10-15T10:24:23.767Z,0.30
2022-10-15T10:26:52.199Z,0.32
2022-10-15T10:29:33.693Z,0.22
2022-10-15T10:32:13.790Z,0.28
2022-10-15T10:34:48.715Z,0.35
2022-10-15T10:37:21.286Z,0.30
2022-10-15T10:39:54.653Z,0.20
2022-10-15T10:42:32.951Z,0.40
2022-10-15T10:45:23.885Z,0.40
2022-10-15T10:47:53.689Z,1.60
2022-10-15T10:50:30.377Z,0.93
2022-10-15T10:53:00.172Z,0.30
2022-10-15T10:55:38.890Z,0.60
2022-10-15T10:58:16.209Z,0.40
2022-10-15T11:00:47.267Z,0.90
2022-10-15T11:03:24.442Z,0.70
2022-10-15T11:06:09.686Z,0.73
2022-10-15T11:08:47.318Z,0.20
2022-10-15T11:11:23.483Z,0.73
2022-10-15T11:14:02.696Z,1.15
2022-10-15T11:16:39.134Z,0.20
2022-10-15T11:19:50.415Z,0.82
2022-10-15T11:22:37.765Z,0.35
2022-10-15T11:25:16.443Z,0.50
2022-10-15T11:27:57.266Z,0.30
2022-10-15T11:30:40.412Z,0.50
2022-10-15T11:33:24.347Z,0.80
2022-10-15T11:36:10.199Z,0.60
2022-10-15T11:38:46.833Z,0.80
2022-10-15T11:41:34.130Z,0.60
2022-10-15T11:44:21.145Z,0.38
2022-10-15T11:47:01.572Z,0.77
2022-10-15T11:49:43.179Z,0.60
2022-10-15T11:52:35.808Z,0.43
2022-10-15T11:55:13.268Z,0.40
2022-10-15T11:57:44.371Z,0.35
2022-10-15T12:00:27.647Z,0.70
2022-10-15T12:02:58.955Z,0.90
2022-10-15T12:05:33.404Z,0.50
2022-10-15T12:10:58.398Z,0.60
2022-10-15T12:13:35.276Z,0.60
2022-10-15T12:16:14.988Z,0.57
2022-10-15T12:18:51.355Z,1.05
2022-10-15T12:21:35.372Z,0.65
2022-10-15T12:24:10.800Z,0.75
2022-10-15T12:26:39.345Z,0.77
2022-10-15T12:29:21.661Z,0.77
2022-10-15T12:31:52.004Z,0.80
2022-10-15T12:34:31.631Z,0.75
2022-10-15T12:37:06.041Z,0.70
2022-10-15T12:39:54.271Z,0.60
2022-10-15T12:42:30.727Z,0.90
2022-10-15T12:45:03.096Z,0.65
2022-10-15T12:47:48.934Z,0.73
2022-10-15T12:50:23.309Z,0.60
2022-10-15T12:53:00.832Z,0.60
2022-10-15T12:55:34.119Z,0.70
2022-10-15T12:58:06.143Z,0.80
2022-10-15T13:00:45.615Z,0.73
2022-10-15T13:03:35.537Z,0.70
2022-10-15T13:06:27.751Z,0.70
2022-10-15T13:09:07.073Z,0.90
2022-10-15T13:11:42.849Z,0.60
2022-10-15T13:14:21.431Z,0.57
2022-10-15T13:16:50.951Z,0.50
2022-10-15T13:19:20.833Z,0.43
2022-10-15T13:21:57.422Z,0.45
2022-10-15T13:24:31.779Z,0.60
2022-10-15T13:27:02.330Z,0.70
2022-10-15T13:29:31.618Z,0.50
2022-10-15T13:32:01.362Z,0.98
2022-10-15T13:34:34.256Z,0.60
2022-10-15T13:37:04.835Z,0.40
2022-10-15T13:39:37.090Z,0.60
2022-10-15T13:42:15.229Z,0.50
2022-10-15T13:44:44.214Z,0.63
2022-10-15T13:47:26.560Z,0.80
2022-10-15T13:50:14.474Z,0.60
2022-10-15T13:52:44.519Z,0.40
2022-10-15T13:55:19.151Z,0.50
2022-10-15T13:57:51.389Z,0.55
2022-10-15T14:00:26.696Z,0.82
2022-10-15T14:03:09.833Z,0.90
2022-10-15T14:05:38.246Z,0.95
2022-10-15T14:08:07.747Z,0.90
2022-10-15T14:10:36.814Z,0.85
2022-10-15T14:13:07.180Z,0.85
2022-10-15T14:15:53.384Z,1.08
2022-10-15T14:18:31.504Z,1.00
2022-10-15T14:21:00.261Z,1.00
2022-10-15T14:23:29.325Z,1.00
2022-10-15T14:25:59.877Z,0.80
2022-10-15T14:28:32.294Z,0.60
2022-10-15T14:31:02.293Z,0.80
2022-10-15T14:33:34.821Z,0.98
2022-10-15T14:36:09.940Z,0.95
2022-10-15T14:38:38.794Z,0.77
2022-10-15T14:41:23.329Z,1.02
2022-10-15T14:44:08.102Z,0.50
2022-10-15T14:46:41.819Z,0.52
2022-10-15T14:49:31.344Z,0.45
2022-10-15T14:52:04.800Z,9.48
2022-10-15T14:54:39.864Z,0.73
2022-10-15T14:57:19.883Z,0.70
2022-10-15T14:59:55.857Z,2.17
2022-10-15T15:02:28.152Z,0.80
2022-10-15T15:05:09.622Z,0.57
2022-10-15T15:07:38.562Z,0.65
2022-10-15T15:10:09.966Z,0.60
2022-10-15T15:12:40.554Z,0.50
2022-10-15T15:15:14.864Z,0.70
2022-10-15T15:17:44.081Z,0.70
2022-10-15T15:20:13.363Z,0.85
2022-10-15T15:22:43.556Z,0.80
2022-10-15T15:25:16.602Z,0.70
2022-10-15T15:27:46.193Z,0.60
2022-10-15T15:30:19.019Z,0.70
2022-10-15T15:32:48.935Z,0.80
2022-10-15T15:35:24.326Z,0.60
2022-10-15T15:37:53.754Z,0.60
2022-10-15T15:40:22.294Z,0.70
2022-10-15T15:42:51.336Z,0.60
2022-10-15T15:45:23.715Z,0.70
2022-10-15T15:47:52.645Z,0.60
2022-10-15T15:50:22.943Z,0.68
2022-10-15T15:52:51.580Z,0.50
2022-10-15T15:55:23.374Z,0.65
2022-10-15T15:57:52.148Z,0.90
2022-10-15T16:00:22.140Z,0.90
2022-10-15T16:02:54.051Z,1.00
2022-10-15T16:05:25.454Z,1.85
2022-10-15T16:07:54.507Z,16.10
2022-10-15T16:10:22.885Z,14.82
2022-10-15T16:12:51.491Z,4.55
2022-10-15T16:15:20.344Z,1.85
2022-10-15T16:17:50.106Z,1.40
2022-10-15T16:20:19.175Z,1.08
2022-10-15T16:22:50.744Z,0.98
2022-10-15T16:25:20.214Z,0.80
2022-10-15T16:27:51.682Z,0.90
2022-10-15T16:30:20.885Z,0.98
2022-10-15T16:32:51.330Z,0.90
2022-10-15T16:35:19.951Z,1.17
2022-10-15T16:37:48.410Z,0.80
2022-10-15T16:40:19.320Z,1.13
2022-10-15T16:42:47.760Z,1.08
2022-10-15T16:45:16.664Z,1.00
2022-10-15T16:47:45.410Z,1.15
2022-10-15T16:50:15.124Z,1.00
2022-10-15T16:52:43.898Z,1.30
2022-10-15T16:55:12.684Z,1.20
2022-10-15T16:57:42.282Z,1.15
2022-10-15T17:00:12.352Z,1.50
2022-10-15T17:02:40.722Z,1.38
2022-10-15T17:05:10.730Z,1.50
2022-10-15T17:07:40.957Z,1.95
2022-10-15T17:10:13.989Z,1.63
2022-10-15T17:12:43.349Z,1.30
2022-10-15T17:15:12.632Z,1.70
2022-10-15T17:17:41.808Z,1.42
2022-10-15T17:20:11.657Z,1.58
2022-10-15T17:22:41.370Z,1.50
2022-10-15T17:25:12.709Z,1.13
2022-10-15T17:27:41.996Z,1.30
2022-10-15T17:30:11.573Z,1.42
2022-10-15T17:32:41.590Z,1.60
2022-10-15T17:35:10.185Z,2.40
2022-10-15T17:37:41.606Z,2.85
2022-10-15T17:40:10.837Z,2.03
2022-10-15T17:42:43.079Z,2.10
2022-10-15T17:45:12.178Z,2.67
2022-10-15T17:47:41.343Z,13.52
2022-10-15T17:50:13.249Z,6.20
2022-10-15T17:52:45.002Z,1.85
2022-10-15T17:55:14.307Z,16.20
2022-10-15T17:57:42.690Z,24.45
2022-10-15T18:00:12.650Z,6.18
2022-10-15T18:02:41.487Z,1.40
2022-10-15T18:05:10.126Z,1.42
2022-10-15T18:07:38.953Z,1.33
2022-10-15T18:10:12.923Z,1.63
2022-10-15T18:12:41.308Z,1.60
2022-10-15T18:15:10.617Z,1.30
2022-10-15T18:17:39.076Z,1.58
2022-10-15T18:20:08.039Z,2.30
2022-10-15T18:22:36.853Z,1.42
2022-10-15T18:25:05.861Z,1.23
2022-10-15T18:27:36.618Z,1.15
2022-10-15T18:30:05.746Z,1.40
2022-10-15T18:35:08.514Z,1.17
2022-10-15T18:37:36.839Z,1.60
2022-10-15T18:40:06.251Z,1.15
2022-10-15T18:42:35.982Z,1.10
2022-10-15T18:45:06.860Z,1.25
2022-10-15T18:47:35.344Z,0.98
2022-10-15T18:50:06.071Z,1.02
2022-10-15T18:52:39.945Z,1.00
2022-10-15T18:55:09.702Z,1.90
2022-10-15T18:57:45.187Z,1.77
2022-10-15T19:00:15.154Z,1.20
2022-10-15T19:02:43.919Z,1.40
2022-10-15T19:05:12.416Z,1.20
2022-10-15T19:07:40.970Z,1.30
2022-10-15T19:10:10.199Z,1.00
2022-10-15T19:12:38.964Z,1.40
2022-10-15T19:15:09.999Z,1.30
2022-10-15T19:17:39.230Z,1.10
2022-10-15T19:20:08.955Z,1.30
2022-10-15T19:22:37.348Z,1.30
2022-10-15T19:25:07.130Z,1.25
2022-10-15T19:27:35.597Z,1.23
2022-10-15T19:30:08.544Z,1.60
2022-10-15T19:32:38.499Z,1.15
2022-10-15T19:35:07.471Z,1.77
2022-10-15T19:37:36.365Z,1.50
2022-10-15T19:40:07.295Z,1.50
2022-10-15T19:42:36.309Z,1.35
2022-10-15T19:45:05.122Z,1.35
2022-10-15T19:47:34.112Z,1.50
2022-10-15T19:50:04.122Z,1.40
2022-10-15T19:52:33.095Z,1.02
2022-10-15T19:55:02.821Z,1.40
2022-10-15T19:57:31.926Z,1.00
2022-10-15T20:00:00.314Z,1.33
2022-10-15T20:02:28.934Z,1.55
2022-10-15T20:04:57.429Z,1.15
2022-10-15T20:07:28.055Z,2.50
2022-10-15T20:09:56.524Z,4.70
2022-10-15T20:12:25.720Z,2.70
2022-10-15T20:14:55.336Z,1.85
2022-10-15T20:17:24.103Z,1.48
2022-10-15T20:19:52.604Z,1.30
2022-10-15T20:22:21.458Z,1.30
2022-10-15T20:24:51.783Z,1.40
2022-10-15T20:27:20.107Z,1.80
2022-10-15T20:29:49.354Z,1.50
2022-10-15T20:32:30.473Z,1.80
2022-10-15T20:35:03.204Z,1.65
2022-10-15T20:37:31.922Z,1.55
2022-10-15T20:40:02.152Z,2.00
2022-10-15T20:42:30.563Z,3.67
2022-10-15T20:44:59.255Z,1.83
2022-10-15T20:47:27.833Z,1.70
2022-10-15T20:49:56.952Z,1.85
2022-10-15T20:52:26.183Z,1.65
2022-10-15T20:54:55.787Z,1.77
2022-10-15T20:57:26.102Z,2.20
2022-10-15T20:59:54.578Z,3.38
2022-10-15T21:02:23.656Z,2.63
2022-10-15T21:04:53.349Z,4.00
2022-10-15T21:07:24.897Z,2.28
2022-10-15T21:09:53.303Z,4.40
2022-10-15T21:12:22.028Z,4.65
2022-10-15T21:14:52.395Z,4.88
2022-10-15T21:17:21.068Z,5.68
2022-10-15T21:19:52.671Z,8.35
2022-10-15T21:22:21.729Z,5.50
2022-10-15T21:24:51.000Z,4.20
2022-10-15T21:27:19.875Z,4.60
2022-10-15T21:29:49.446Z,4.07
2022-10-15T21:32:20.041Z,3.22
2022-10-15T21:34:48.402Z,3.03
2022-10-15T21:37:17.543Z,2.53
2022-10-15T21:39:46.220Z,2.75
2022-10-15T21:42:14.583Z,2.80
2022-10-15T21:44:43.663Z,1.90
2022-10-15T21:47:15.131Z,2.10
2022-10-15T21:49:45.820Z,2.22
2022-10-15T21:52:15.159Z,2.25
2022-10-15T21:54:43.981Z,2.30
2022-10-15T21:57:12.367Z,2.53
2022-10-15T21:59:40.726Z,1.77
2022-10-15T22:02:09.551Z,2.10
2022-10-15T22:04:38.047Z,2.03
2022-10-15T22:07:09.676Z,1.70
2022-10-15T22:09:38.638Z,1.90
2022-10-15T22:12:07.333Z,1.80
2022-10-15T22:14:36.171Z,2.22
2022-10-15T22:17:05.017Z,1.83
2022-10-15T22:19:33.357Z,2.05
2022-10-15T22:22:02.452Z,2.25
2022-10-15T22:24:32.739Z,2.50
2022-10-15T22:27:02.015Z,2.15
2022-10-15T22:29:34.441Z,2.17
2022-10-15T22:32:04.800Z,1.80
2022-10-15T22:34:33.435Z,2.40
2022-10-15T22:37:02.528Z,9.35
2022-10-15T22:39:32.363Z,4.90
2022-10-15T22:42:01.572Z,3.85
2022-10-15T22:44:30.360Z,3.30
2022-10-15T22:46:59.002Z,2.13
2022-10-15T22:49:28.258Z,2.17
2022-10-15T22:51:56.771Z,1.85
2022-10-15T22:54:25.435Z,1.92
2022-10-15T22:56:55.158Z,1.70
2022-10-15T22:59:24.457Z,2.30
2022-10-15T23:01:52.819Z,1.90
2022-10-15T23:04:21.855Z,1.60
2022-10-15T23:06:50.720Z,1.85
2022-10-15T23:09:19.955Z,1.77
2022-10-15T23:11:49.451Z,1.52
2022-10-15T23:14:19.664Z,2.38
2022-10-15T23:16:49.328Z,2.30
2022-10-15T23:19:20.251Z,3.88
2022-10-15T23:21:51.446Z,5.03
2022-10-15T23:24:22.278Z,2.30
2022-10-15T23:26:51.556Z,1.60
2022-10-15T23:29:23.682Z,1.67
2022-10-15T23:31:53.770Z,2.58
2022-10-15T23:34:24.804Z,1.90
2022-10-15T23:36:53.788Z,1.83
2022-10-15T23:39:25.129Z,1.67
2022-10-15T23:41:54.264Z,1.63
2022-10-15T23:44:27.279Z,1.52
2022-10-15T23:46:55.915Z,3.78
2022-10-15T23:49:24.741Z,3.45
2022-10-15T23:51:53.099Z,3.30
2022-10-15T23:54:22.840Z,2.28
2022-10-15T23:56:51.192Z,1.90
2022-10-15T23:59:21.745Z,1.98
